createdAt,value
2022-11-26T00:01:15.309Z,37.40
2022-11-26T00:03:43.010Z,31.50
2022-11-26T00:06:24.385Z,31.93
2022-11-26T00:08:51.996Z,35.03
2022-11-26T00:11:19.515Z,33.40
2022-11-26T00:13:47.082Z,35.23
2022-11-26T00:16:16.560Z,34.30
2022-11-26T00:18:44.577Z,36.87
2022-11-26T00:21:19.468Z,33.67
2022-11-26T00:23:47.108Z,30.93
2022-11-26T00:26:17.040Z,31.03
2022-11-26T00:28:51.402Z,32.50
2022-11-26T00:31:20.421Z,28.23
2022-11-26T00:33:48.048Z,40.23
2022-11-26T00:36:19.813Z,36.43
2022-11-26T00:38:48.150Z,31.00
2022-11-26T00:41:19.135Z,36.27
2022-11-26T00:43:47.320Z,31.73
2022-11-26T00:46:15.281Z,33.13
2022-11-26T00:48:44.186Z,39.73
2022-11-26T00:51:16.004Z,28.30
2022-11-26T00:53:44.604Z,31.90
2022-11-26T00:56:16.245Z,32.07
2022-11-26T00:58:43.831Z,35.37
2022-11-26T01:01:13.288Z,31.60
2022-11-26T01:03:42.899Z,30.17
2022-11-26T01:06:16.803Z,35.60
2022-11-26T01:08:44.963Z,33.83
2022-11-26T01:11:15.053Z,27.87
2022-11-26T01:13:43.877Z,31.67
2022-11-26T01:16:20.467Z,31.07
2022-11-26T01:18:48.708Z,34.43
2022-11-26T01:21:17.808Z,33.20
2022-11-26T01:23:45.988Z,31.10
2022-11-26T01:26:17.432Z,33.00
2022-11-26T01:28:45.906Z,33.20
2022-11-26T01:31:16.596Z,37.57
2022-11-26T01:33:44.711Z,30.43
2022-11-26T01:36:26.701Z,33.17
2022-11-26T01:38:55.362Z,31.47
2022-11-26T01:41:39.097Z,31.43
2022-11-26T01:44:09.251Z,34.67
2022-11-26T01:46:38.050Z,29.10
2022-11-26T01:49:19.171Z,35.63
2022-11-26T01:51:51.739Z,34.10
2022-11-26T01:54:19.640Z,32.50
2022-11-26T01:56:50.846Z,31.87
2022-11-26T01:59:22.346Z,31.00
2022-11-26T02:01:51.383Z,32.10
2022-11-26T02:04:22.774Z,33.90
2022-11-26T02:06:53.192Z,28.97
2022-11-26T02:09:21.447Z,34.47
2022-11-26T02:11:49.336Z,35.50
2022-11-26T02:14:19.904Z,30.87
2022-11-26T02:16:59.128Z,29.17
2022-11-26T02:20:20.934Z,33.83
2022-11-26T02:23:13.010Z,35.73
2022-11-26T02:26:09.480Z,31.60
2022-11-26T02:28:59.515Z,30.53
2022-11-26T02:31:32.864Z,30.70
2022-11-26T02:34:09.567Z,29.00
2022-11-26T02:36:42.588Z,27.60
2022-11-26T02:39:14.848Z,28.23
2022-11-26T02:41:44.504Z,27.63
2022-11-26T02:44:13.104Z,27.47
2022-11-26T02:46:43.447Z,29.90
2022-11-26T02:49:13.466Z,29.87
2022-11-26T02:51:42.571Z,27.13
2022-11-26T02:54:12.096Z,34.00
2022-11-26T02:56:41.335Z,27.20
2022-11-26T02:59:09.015Z,28.33
2022-11-26T03:01:40.120Z,30.33
2022-11-26T03:04:11.912Z,28.53
2022-11-26T03:06:40.844Z,30.67
2022-11-26T03:09:09.108Z,35.37
2022-11-26T03:11:36.681Z,34.77
2022-11-26T03:14:04.697Z,29.43
2022-11-26T03:16:32.284Z,31.33
2022-11-26T03:18:59.991Z,34.37
2022-11-26T03:21:28.884Z,30.27
2022-11-26T03:23:56.420Z,31.17
2022-11-26T03:26:23.930Z,32.13
2022-11-26T03:28:51.436Z,32.47
2022-11-26T03:31:19.091Z,32.90
2022-11-26T03:33:46.677Z,35.23
2022-11-26T03:36:14.215Z,30.20
2022-11-26T03:38:43.082Z,26.77
2022-11-26T03:41:10.694Z,34.90
2022-11-26T03:43:38.237Z,26.93
2022-11-26T03:46:06.076Z,26.23
2022-11-26T03:48:33.663Z,24.30
2022-11-26T03:51:01.499Z,27.77
2022-11-26T03:53:29.022Z,25.40
2022-11-26T03:55:57.901Z,25.90
2022-11-26T03:58:25.556Z,21.87
2022-11-26T04:00:53.142Z,31.10
2022-11-26T04:03:20.717Z,31.10
2022-11-26T04:05:48.280Z,24.47
2022-11-26T04:08:15.825Z,28.97
2022-11-26T04:10:43.391Z,21.73
2022-11-26T04:13:12.268Z,30.43
2022-11-26T04:15:39.809Z,29.83
2022-11-26T04:18:07.334Z,30.43
2022-11-26T04:20:34.887Z,27.33
2022-11-26T04:23:02.417Z,27.07
2022-11-26T04:25:29.975Z,29.73
2022-11-26T04:27:57.591Z,26.40
2022-11-26T04:30:27.530Z,30.03
2022-11-26T04:32:56.596Z,22.43
2022-11-26T04:35:24.294Z,30.63
2022-11-26T04:37:51.885Z,31.30
2022-11-26T04:40:19.609Z,25.93
2022-11-26T04:42:47.151Z,23.87
2022-11-26T04:45:14.730Z,27.07
2022-11-26T04:47:43.604Z,31.20
2022-11-26T04:50:12.616Z,27.03
2022-11-26T04:52:40.389Z,28.47
2022-11-26T04:55:08.428Z,25.40
2022-11-26T04:57:35.950Z,28.43
2022-11-26T05:00:03.547Z,25.80
2022-11-26T05:02:31.125Z,30.03
2022-11-26T05:05:00.065Z,32.90
2022-11-26T05:07:27.642Z,27.27
2022-11-26T05:09:55.363Z,43.27
2022-11-26T05:12:22.901Z,28.40
2022-11-26T05:14:50.425Z,29.70
2022-11-26T05:17:18.061Z,25.43
2022-11-26T05:19:45.575Z,31.37
2022-11-26T05:22:14.505Z,37.40
2022-11-26T05:24:42.043Z,32.17
2022-11-26T05:27:09.588Z,31.60
2022-11-26T05:29:37.142Z,36.30
2022-11-26T05:32:05.319Z,33.67
2022-11-26T05:34:32.963Z,33.73
2022-11-26T05:37:00.478Z,29.97
2022-11-26T05:39:29.516Z,39.37
2022-11-26T05:41:57.033Z,34.27
2022-11-26T05:44:24.562Z,41.73
2022-11-26T05:46:52.089Z,26.30
2022-11-26T05:49:19.650Z,38.13
2022-11-26T05:51:47.152Z,30.43
2022-11-26T05:54:15.579Z,33.53
2022-11-26T05:56:44.827Z,32.07
2022-11-26T05:59:12.409Z,34.57
2022-11-26T06:01:39.918Z,37.37
2022-11-26T06:04:07.518Z,39.97
2022-11-26T06:06:35.042Z,36.60
2022-11-26T06:09:02.672Z,33.97
2022-11-26T06:11:30.248Z,37.30
2022-11-26T06:13:59.127Z,40.73
2022-11-26T06:16:26.792Z,37.90
2022-11-26T06:18:54.436Z,39.47
2022-11-26T06:21:21.957Z,35.77
2022-11-26T06:23:55.836Z,24.33
2022-11-26T06:26:25.301Z,31.27
2022-11-26T06:28:52.858Z,42.17
2022-11-26T06:31:21.855Z,49.20
2022-11-26T06:33:49.480Z,39.77
2022-11-26T06:36:16.995Z,37.67
2022-11-26T06:38:44.515Z,35.10
2022-11-26T06:41:12.024Z,33.03
2022-11-26T06:43:39.554Z,37.23
2022-11-26T06:46:09.817Z,35.33
2022-11-26T06:48:39.665Z,32.70
2022-11-26T06:51:08.776Z,35.27
2022-11-26T06:53:36.334Z,26.00
2022-11-26T06:56:05.722Z,32.17
2022-11-26T06:58:33.469Z,31.70
2022-11-26T07:01:01.064Z,33.37
2022-11-26T07:03:33.247Z,34.27
2022-11-26T07:06:02.437Z,37.77
2022-11-26T07:08:30.016Z,33.47
2022-11-26T07:10:57.553Z,35.67
2022-11-26T07:13:25.076Z,29.13
2022-11-26T07:15:52.593Z,32.83
2022-11-26T07:18:20.116Z,33.83
2022-11-26T07:20:47.633Z,38.83
2022-11-26T07:23:16.451Z,28.40
2022-11-26T07:25:43.964Z,28.83
2022-11-26T07:28:11.488Z,32.50
2022-11-26T07:30:39.200Z,33.90
2022-11-26T07:33:06.737Z,30.73
2022-11-26T07:35:34.286Z,33.00
2022-11-26T07:38:01.815Z,26.50
2022-11-26T07:40:30.670Z,29.07
2022-11-26T07:43:00.516Z,32.17
2022-11-26T07:45:28.183Z,33.17
2022-11-26T07:47:55.728Z,28.87
2022-11-26T07:50:23.239Z,29.70
2022-11-26T07:52:52.668Z,37.07
2022-11-26T07:55:20.160Z,32.80
2022-11-26T07:57:49.059Z,34.83
2022-11-26T08:00:17.960Z,31.23
2022-11-26T08:02:45.512Z,29.90
2022-11-26T08:05:13.084Z,32.07
2022-11-26T08:07:40.592Z,31.47
2022-11-26T08:10:08.988Z,27.00
2022-11-26T08:12:36.559Z,22.90
2022-11-26T08:15:05.862Z,21.30
2022-11-26T08:17:33.377Z,20.80
2022-11-26T08:20:00.922Z,20.87
2022-11-26T08:22:30.212Z,18.93
2022-11-26T08:24:57.997Z,14.57
2022-11-26T08:27:25.739Z,14.30
2022-11-26T08:29:53.239Z,15.17
2022-11-26T08:32:22.127Z,14.23
2022-11-26T08:34:49.715Z,15.20
2022-11-26T08:37:17.246Z,15.50
2022-11-26T08:39:44.752Z,18.10
2022-11-26T08:42:12.283Z,13.53
2022-11-26T08:44:40.284Z,16.60
2022-11-26T08:47:08.005Z,12.53
2022-11-26T08:49:36.891Z,16.43
2022-11-26T08:52:04.631Z,13.23
2022-11-26T08:54:32.136Z,12.80
2022-11-26T08:56:59.660Z,18.47
2022-11-26T08:59:27.190Z,16.53
2022-11-26T09:01:54.795Z,14.30
2022-11-26T09:04:22.376Z,17.80
2022-11-26T09:06:51.257Z,12.90
2022-11-26T09:09:18.800Z,12.50
2022-11-26T09:11:48.996Z,14.70
2022-11-26T09:14:19.288Z,13.30
2022-11-26T09:16:47.137Z,14.63
2022-11-26T09:19:15.619Z,14.37
2022-11-26T09:21:43.421Z,14.03
2022-11-26T09:24:12.827Z,12.00
2022-11-26T09:26:40.928Z,14.13
2022-11-26T09:29:08.753Z,13.47
2022-11-26T09:31:36.330Z,14.23
2022-11-26T09:34:04.266Z,13.33
2022-11-26T09:36:32.222Z,17.87
2022-11-26T09:39:00.616Z,13.27
2022-11-26T09:41:41.043Z,12.10
2022-11-26T09:44:22.153Z,13.50
2022-11-26T09:47:13.061Z,18.13
2022-11-26T09:49:54.616Z,14.60
2022-11-26T09:52:25.572Z,11.27
2022-11-26T09:55:00.442Z,11.53
2022-11-26T09:57:34.694Z,12.33
2022-11-26T10:00:22.003Z,14.67
2022-11-26T10:02:52.071Z,15.43
2022-11-26T10:05:21.563Z,11.90
2022-11-26T10:08:02.388Z,14.57
2022-11-26T10:10:36.541Z,11.93
2022-11-26T10:13:19.810Z,15.60
2022-11-26T10:15:59.620Z,14.97
2022-11-26T10:18:38.850Z,17.40
2022-11-26T10:21:27.224Z,11.13
2022-11-26T10:24:15.326Z,14.70
2022-11-26T10:26:44.399Z,13.23
2022-11-26T10:29:23.176Z,13.77
2022-11-26T10:31:53.696Z,13.13
2022-11-26T10:34:29.281Z,12.07
2022-11-26T10:36:58.030Z,12.70
2022-11-26T10:39:25.528Z,11.07
2022-11-26T10:41:53.051Z,14.65
2022-11-26T10:44:36.942Z,11.60
2022-11-26T10:47:27.174Z,10.53
2022-11-26T10:49:56.248Z,12.77
2022-11-26T10:52:26.928Z,11.73
2022-11-26T10:55:11.137Z,20.47
2022-11-26T10:57:44.692Z,26.67
2022-11-26T11:03:17.276Z,15.00
2022-11-26T11:05:45.462Z,14.53
2022-11-26T11:08:28.744Z,13.10
2022-11-26T11:10:58.345Z,11.65
2022-11-26T11:13:40.894Z,9.95
2022-11-26T11:16:09.707Z,9.32
2022-11-26T11:18:39.616Z,9.30
2022-11-26T11:21:07.431Z,11.68
2022-11-26T11:24:06.567Z,9.93
2022-11-26T11:26:26.771Z,8.40
2022-11-26T11:28:56.499Z,11.73
2022-11-26T11:31:26.146Z,10.43
2022-11-26T11:34:14.023Z,9.93
2022-11-26T11:36:41.530Z,10.53
2022-11-26T11:39:29.070Z,9.17
2022-11-26T11:41:57.662Z,10.63
2022-11-26T11:44:27.743Z,12.87
2022-11-26T11:47:36.690Z,8.63
2022-11-26T11:50:17.857Z,12.27
2022-11-26T11:53:00.627Z,12.30
2022-11-26T11:55:39.743Z,14.20
2022-11-26T11:58:22.898Z,13.10
2022-11-26T12:00:55.488Z,9.90
2022-11-26T12:03:53.042Z,11.43
2022-11-26T12:06:33.909Z,12.93
2022-11-26T12:09:13.026Z,13.03
2022-11-26T12:11:51.615Z,12.53
2022-11-26T12:14:24.756Z,11.43
2022-11-26T12:16:55.814Z,11.77
2022-11-26T12:19:35.409Z,10.73
2022-11-26T12:22:11.763Z,9.27
2022-11-26T12:24:45.564Z,9.20
2022-11-26T12:27:24.960Z,10.53
2022-11-26T12:29:57.086Z,10.83
2022-11-26T12:32:32.230Z,11.73
2022-11-26T12:35:04.443Z,8.07
2022-11-26T12:37:37.198Z,14.27
2022-11-26T12:40:10.063Z,12.73
2022-11-26T12:42:45.780Z,13.43
2022-11-26T12:45:21.449Z,11.93
2022-11-26T12:47:55.165Z,14.83
2022-11-26T12:50:33.623Z,14.07
2022-11-26T12:53:14.661Z,14.30
2022-11-26T12:55:47.054Z,14.20
2022-11-26T12:58:18.956Z,15.43
2022-11-26T13:00:49.530Z,12.93
2022-11-26T13:03:19.495Z,9.93
2022-11-26T13:05:55.417Z,12.93
2022-11-26T13:08:41.645Z,14.23
2022-11-26T13:11:20.473Z,10.27
2022-11-26T13:13:54.340Z,10.70
2022-11-26T13:16:27.653Z,10.90
2022-11-26T13:19:00.649Z,13.13
2022-11-26T13:21:42.610Z,15.43
2022-11-26T13:24:25.555Z,12.27
2022-11-26T13:27:05.613Z,16.83
2022-11-26T13:30:00.952Z,15.03
2022-11-26T13:32:53.910Z,15.90
2022-11-26T13:35:38.487Z,18.03
2022-11-26T13:38:18.751Z,13.07
2022-11-26T13:41:05.004Z,19.07
2022-11-26T13:44:09.554Z,13.67
2022-11-26T13:46:41.258Z,14.37
2022-11-26T13:49:14.178Z,17.93
2022-11-26T13:51:48.074Z,18.13
2022-11-26T13:54:22.076Z,16.70
2022-11-26T13:56:58.842Z,19.43
2022-11-26T13:59:28.808Z,16.23
2022-11-26T14:01:57.157Z,16.63
2022-11-26T14:04:54.524Z,23.13
2022-11-26T14:07:22.399Z,17.97
2022-11-26T14:09:53.491Z,20.77
2022-11-26T14:12:23.951Z,29.70
2022-11-26T14:14:52.446Z,25.47
2022-11-26T14:17:32.391Z,27.07
2022-11-26T14:20:11.366Z,22.40
2022-11-26T14:22:40.032Z,21.03
2022-11-26T14:25:13.526Z,18.27
2022-11-26T14:27:50.118Z,18.93
2022-11-26T14:30:29.053Z,19.30
2022-11-26T14:33:10.910Z,21.97
2022-11-26T14:35:40.460Z,23.90
2022-11-26T14:38:27.296Z,23.97
2022-11-26T14:40:59.883Z,23.43
2022-11-26T14:43:29.080Z,17.43
2022-11-26T14:46:12.248Z,20.13
2022-11-26T14:48:43.930Z,20.77
2022-11-26T14:51:11.764Z,16.87
2022-11-26T14:53:47.797Z,20.40
2022-11-26T14:56:15.787Z,18.40
2022-11-26T14:58:47.879Z,26.97
2022-11-26T15:01:21.158Z,31.03
2022-11-26T15:04:01.569Z,28.67
2022-11-26T15:06:34.794Z,27.73
2022-11-26T15:09:07.177Z,30.77
2022-11-26T15:11:37.259Z,34.33
2022-11-26T15:14:06.275Z,27.17
2022-11-26T15:16:37.131Z,26.43
2022-11-26T15:19:06.592Z,19.33
2022-11-26T15:21:35.776Z,19.50
2022-11-26T15:24:08.933Z,22.40
2022-11-26T15:26:39.184Z,25.10
2022-11-26T15:32:02.236Z,25.33
2022-11-26T15:34:32.239Z,24.93
2022-11-26T15:36:59.952Z,24.17
2022-11-26T15:39:29.932Z,29.53
2022-11-26T15:42:02.865Z,32.27
2022-11-26T15:44:32.397Z,28.97
2022-11-26T15:47:02.143Z,36.20
2022-11-26T15:49:34.618Z,18.93
2022-11-26T15:52:04.496Z,22.63
2022-11-26T15:54:56.573Z,20.10
2022-11-26T15:57:28.519Z,22.83
2022-11-26T15:59:59.834Z,43.87
2022-11-26T16:02:31.085Z,35.77
2022-11-26T16:05:00.166Z,29.90
2022-11-26T16:07:30.291Z,70.37
2022-11-26T16:10:22.451Z,22.53
2022-11-26T16:13:10.156Z,21.10
2022-11-26T16:15:45.139Z,19.03
2022-11-26T16:18:18.746Z,19.70
2022-11-26T16:20:46.525Z,16.53
2022-11-26T16:23:22.890Z,21.60
2022-11-26T16:26:11.879Z,19.23
2022-11-26T16:28:39.428Z,21.00
2022-11-26T16:31:07.914Z,51.57
2022-11-26T16:33:36.880Z,25.97
2022-11-26T16:36:19.342Z,33.13
2022-11-26T16:38:47.169Z,41.10
2022-11-26T16:41:16.575Z,21.33
2022-11-26T16:43:44.116Z,28.17
2022-11-26T16:46:15.480Z,26.70
2022-11-26T16:48:46.469Z,40.47
2022-11-26T16:51:14.383Z,44.03
2022-11-26T16:53:42.243Z,40.73
2022-11-26T16:56:19.077Z,52.33
2022-11-26T16:58:46.975Z,64.23
2022-11-26T17:01:14.510Z,75.10
2022-11-26T17:03:42.993Z,69.53
2022-11-26T17:06:15.856Z,137.80
2022-11-26T17:08:49.216Z,384.30
2022-11-26T17:11:17.859Z,129.07
2022-11-26T17:13:45.365Z,88.60
2022-11-26T17:16:14.804Z,72.10
2022-11-26T17:18:42.507Z,37.00
2022-11-26T17:21:10.278Z,38.80
2022-11-26T17:23:39.177Z,39.47
2022-11-26T17:26:16.700Z,51.50
2022-11-26T17:28:44.250Z,47.33
2022-11-26T17:31:11.832Z,81.63
2022-11-26T17:33:39.492Z,199.17
2022-11-26T17:36:16.875Z,387.73
2022-11-26T17:38:46.773Z,346.57
2022-11-26T17:41:14.966Z,131.30
2022-11-26T17:43:43.074Z,103.30
2022-11-26T17:46:15.833Z,172.90
2022-11-26T17:48:43.712Z,308.23
2022-11-26T17:51:13.726Z,163.17
2022-11-26T17:53:41.641Z,178.03
2022-11-26T17:56:17.479Z,253.50
2022-11-26T17:58:45.244Z,171.80
2022-11-26T18:01:14.551Z,144.73
2022-11-26T18:03:42.487Z,244.93
2022-11-26T18:06:14.467Z,306.20
2022-11-26T18:08:42.126Z,342.70
2022-11-26T18:11:09.646Z,129.90
2022-11-26T18:13:38.519Z,194.47
2022-11-26T18:16:06.519Z,111.80
2022-11-26T18:18:34.034Z,193.73
2022-11-26T18:21:01.589Z,72.33
2022-11-26T18:23:29.097Z,183.37
2022-11-26T18:25:56.624Z,364.40
2022-11-26T18:28:24.196Z,165.67
2022-11-26T18:30:58.025Z,232.97
2022-11-26T18:33:25.602Z,168.97
2022-11-26T18:35:53.138Z,146.57
2022-11-26T18:38:20.776Z,142.50
2022-11-26T18:40:48.368Z,246.83
2022-11-26T18:43:15.896Z,297.03
2022-11-26T18:45:43.589Z,167.53
2022-11-26T18:48:12.498Z,170.93
2022-11-26T18:50:40.000Z,128.27
2022-11-26T18:53:07.529Z,103.13
2022-11-26T18:55:35.127Z,205.90
2022-11-26T18:58:07.743Z,201.97
2022-11-26T19:00:35.623Z,254.37
2022-11-26T19:03:03.153Z,295.33
2022-11-26T19:05:32.177Z,1220.93
2022-11-26T19:07:59.726Z,1043.47
2022-11-26T19:10:27.288Z,1068.37
2022-11-26T19:12:54.824Z,926.57
2022-11-26T19:15:22.360Z,425.87
2022-11-26T19:17:49.888Z,518.63
2022-11-26T19:20:17.700Z,431.17
2022-11-26T19:22:46.627Z,266.73
2022-11-26T19:25:14.493Z,349.10
2022-11-26T19:27:42.054Z,296.57
2022-11-26T19:30:10.745Z,419.03
2022-11-26T19:32:38.276Z,294.47
2022-11-26T19:35:06.460Z,158.47
2022-11-26T19:37:34.166Z,215.67
2022-11-26T19:40:03.116Z,116.87
2022-11-26T19:42:30.651Z,303.13
2022-11-26T19:44:58.160Z,222.47
2022-11-26T19:47:25.691Z,568.80
2022-11-26T19:49:53.229Z,308.20
2022-11-26T19:52:20.753Z,219.90
2022-11-26T19:54:48.285Z,406.30
2022-11-26T19:57:17.139Z,108.53
2022-11-26T19:59:44.635Z,162.67
2022-11-26T20:02:12.249Z,109.67
2022-11-26T20:04:39.822Z,178.10
2022-11-26T20:07:07.340Z,185.07
2022-11-26T20:09:34.912Z,408.47
2022-11-26T20:12:02.442Z,312.37
2022-11-26T20:14:31.565Z,210.47
2022-11-26T20:17:01.076Z,295.03
2022-11-26T20:19:28.925Z,158.40
2022-11-26T20:21:56.452Z,211.10
2022-11-26T20:24:23.966Z,503.67
2022-11-26T20:26:51.721Z,568.10
2022-11-26T20:29:20.010Z,443.10
2022-11-26T20:31:50.500Z,666.47
2022-11-26T20:34:20.016Z,279.27
2022-11-26T20:36:47.922Z,133.90
2022-11-26T20:39:17.363Z,320.57
2022-11-26T20:41:45.525Z,143.27
2022-11-26T20:44:14.503Z,165.53
2022-11-26T20:46:42.640Z,184.77
2022-11-26T20:49:12.159Z,313.40
2022-11-26T20:51:40.110Z,202.87
2022-11-26T20:54:07.644Z,66.07
2022-11-26T20:56:35.354Z,190.70
2022-11-26T20:59:03.359Z,93.93
2022-11-26T21:01:31.548Z,152.13
2022-11-26T21:03:59.763Z,192.73
2022-11-26T21:06:30.672Z,64.17
2022-11-26T21:09:00.419Z,113.80
2022-11-26T21:11:28.273Z,110.00
2022-11-26T21:13:55.868Z,232.27
2022-11-26T21:16:23.510Z,231.17
2022-11-26T21:18:53.456Z,120.80
2022-11-26T21:21:21.187Z,151.93
2022-11-26T21:23:50.216Z,97.23
2022-11-26T21:26:20.173Z,135.73
2022-11-26T21:28:52.340Z,86.67
2022-11-26T21:31:21.341Z,118.87
2022-11-26T21:33:54.672Z,96.40
2022-11-26T21:36:23.804Z,66.97
2022-11-26T21:38:52.671Z,130.53
2022-11-26T21:41:20.738Z,221.63
2022-11-26T21:43:49.481Z,152.03
2022-11-26T21:46:19.220Z,156.23
2022-11-26T21:48:46.946Z,115.53
2022-11-26T21:51:17.546Z,224.50
2022-11-26T21:53:46.274Z,217.80
2022-11-26T21:56:16.510Z,233.33
2022-11-26T21:58:44.674Z,273.40
2022-11-26T22:01:13.431Z,262.40
2022-11-26T22:03:42.494Z,172.07
2022-11-26T22:06:10.336Z,141.33
2022-11-26T22:08:38.202Z,212.33
2022-11-26T22:11:10.296Z,282.53
2022-11-26T22:13:39.390Z,168.97
2022-11-26T22:16:08.754Z,194.50
2022-11-26T22:18:37.969Z,61.23
2022-11-26T22:21:07.552Z,246.57
2022-11-26T22:23:35.260Z,295.30
2022-11-26T22:26:02.803Z,195.57
2022-11-26T22:28:30.541Z,62.40
2022-11-26T22:30:59.697Z,99.03
2022-11-26T22:33:27.284Z,110.13
2022-11-26T22:35:54.820Z,177.20
2022-11-26T22:38:22.353Z,181.07
2022-11-26T22:40:49.887Z,122.83
2022-11-26T22:43:17.432Z,84.90
2022-11-26T22:45:45.020Z,191.10
2022-11-26T22:48:13.880Z,78.83
2022-11-26T22:50:41.433Z,66.53
2022-11-26T22:53:08.956Z,49.53
2022-11-26T22:55:36.498Z,42.37
2022-11-26T22:58:04.031Z,42.10
2022-11-26T23:00:51.917Z,48.37
2022-11-26T23:03:21.863Z,43.80
2022-11-26T23:05:50.232Z,51.13
2022-11-26T23:08:18.428Z,178.60
2022-11-26T23:10:46.009Z,77.43
2022-11-26T23:13:14.293Z,84.50
2022-11-26T23:15:44.864Z,45.60
2022-11-26T23:18:14.275Z,72.80
2022-11-26T23:20:43.988Z,121.70
2022-11-26T23:23:11.771Z,56.87
2022-11-26T23:25:40.382Z,51.37
2022-11-26T23:28:08.431Z,37.07
2022-11-26T23:30:36.723Z,64.50
2022-11-26T23:33:04.446Z,64.67
2022-11-26T23:35:31.998Z,50.00
2022-11-26T23:38:00.928Z,104.60
2022-11-26T23:40:28.483Z,50.03
2022-11-26T23:42:56.176Z,52.67
2022-11-26T23:45:23.726Z,38.73
2022-11-26T23:47:51.258Z,94.67
2022-11-26T23:50:18.802Z,131.83
2022-11-26T23:52:46.332Z,88.13
2022-11-26T23:55:20.469Z,128.22
2022-11-26T23:57:48.003Z,128.27
